sensor_id;sensor_type;location;lat;lon;timestamp;temperature;humidity
20866;DHT22;10593;48.398;10.698;2022-10-01T00:02:00;12.20;57.90
20866;DHT22;10593;48.398;10.698;2022-10-01T00:04:27;12.20;57.90
20866;DHT22;10593;48.398;10.698;2022-10-01T00:06:52;12.20;57.90
20866;DHT22;10593;48.398;10.698;2022-10-01T00:09:18;12.20;57.90
20866;DHT22;10593;48.398;10.698;2022-10-01T00:11:44;12.10;57.90
20866;DHT22;10593;48.398;10.698;2022-10-01T00:14:10;12.10;57.80
20866;DHT22;10593;48.398;10.698;2022-10-01T00:16:36;12.10;57.80
20866;DHT22;10593;48.398;10.698;2022-10-01T00:19:01;12.10;57.90
20866;DHT22;10593;48.398;10.698;2022-10-01T00:21:29;12.10;57.90
20866;DHT22;10593;48.398;10.698;2022-10-01T00:23:59;12.10;57.90
20866;DHT22;10593;48.398;10.698;2022-10-01T00:26:29;12.10;57.80
20866;DHT22;10593;48.398;10.698;2022-10-01T00:29:08;12.10;57.60
20866;DHT22;10593;48.398;10.698;2022-10-01T00:31:36;12.10;57.60
20866;DHT22;10593;48.398;10.698;2022-10-01T00:34:03;12.00;57.50
20866;DHT22;10593;48.398;10.698;2022-10-01T00:36:29;12.00;57.40
20866;DHT22;10593;48.398;10.698;2022-10-01T00:38:56;12.00;57.30
20866;DHT22;10593;48.398;10.698;2022-10-01T00:41:29;12.00;57.30
20866;DHT22;10593;48.398;10.698;2022-10-01T00:43:59;12.00;57.30
20866;DHT22;10593;48.398;10.698;2022-10-01T00:46:36;12.00;57.20
20866;DHT22;10593;48.398;10.698;2022-10-01T00:49:14;12.00;57.30
20866;DHT22;10593;48.398;10.698;2022-10-01T00:51:48;12.00;57.30
20866;DHT22;10593;48.398;10.698;2022-10-01T00:54:22;11.90;57.20
20866;DHT22;10593;48.398;10.698;2022-10-01T00:56:52;11.90;57.20
20866;DHT22;10593;48.398;10.698;2022-10-01T00:59:21;11.90;57.20
20866;DHT22;10593;48.398;10.698;2022-10-01T01:01:47;11.90;57.30
20866;DHT22;10593;48.398;10.698;2022-10-01T01:04:13;11.90;57.30
20866;DHT22;10593;48.398;10.698;2022-10-01T01:06:44;11.90;57.30
20866;DHT22;10593;48.398;10.698;2022-10-01T01:09:15;11.80;57.30
20866;DHT22;10593;48.398;10.698;2022-10-01T01:11:47;11.80;57.30
20866;DHT22;10593;48.398;10.698;2022-10-01T01:32:28;11.70;57.00
20866;DHT22;10593;48.398;10.698;2022-10-01T01:35:03;11.70;57.00
20866;DHT22;10593;48.398;10.698;2022-10-01T01:37:39;11.70;57.10
20866;DHT22;10593;48.398;10.698;2022-10-01T01:40:12;11.70;57.20
20866;DHT22;10593;48.398;10.698;2022-10-01T01:42:41;11.70;57.30
20866;DHT22;10593;48.398;10.698;2022-10-01T01:45:13;11.70;57.30
20866;DHT22;10593;48.398;10.698;2022-10-01T01:47:44;11.60;57.20
20866;DHT22;10593;48.398;10.698;2022-10-01T01:50:12;11.70;57.30
20866;DHT22;10593;48.398;10.698;2022-10-01T01:52:40;11.60;57.20
20866;DHT22;10593;48.398;10.698;2022-10-01T01:55:06;11.70;57.40
20866;DHT22;10593;48.398;10.698;2022-10-01T01:57:39;11.60;57.30
20866;DHT22;10593;48.398;10.698;2022-10-01T02:00:07;11.70;57.40
20866;DHT22;10593;48.398;10.698;2022-10-01T02:02:35;11.70;57.40
20866;DHT22;10593;48.398;10.698;2022-10-01T02:05:09;11.60;57.40
20866;DHT22;10593;48.398;10.698;2022-10-01T02:19:00;11.60;57.60
20866;DHT22;10593;48.398;10.698;2022-10-01T02:21:39;11.60;57.70
20866;DHT22;10593;48.398;10.698;2022-10-01T02:27:19;11.60;57.70
20866;DHT22;10593;48.398;10.698;2022-10-01T02:29:49;11.60;57.50
20866;DHT22;10593;48.398;10.698;2022-10-01T02:32:18;11.60;57.50
20866;DHT22;10593;48.398;10.698;2022-10-01T02:34:46;11.60;57.50
20866;DHT22;10593;48.398;10.698;2022-10-01T02:37:16;11.60;57.50
20866;DHT22;10593;48.398;10.698;2022-10-01T02:39:47;11.60;57.40
20866;DHT22;10593;48.398;10.698;2022-10-01T02:42:17;11.60;57.40
20866;DHT22;10593;48.398;10.698;2022-10-01T02:44:46;11.60;57.30
20866;DHT22;10593;48.398;10.698;2022-10-01T02:47:28;11.60;57.30
20866;DHT22;10593;48.398;10.698;2022-10-01T02:50:00;11.60;57.20
20866;DHT22;10593;48.398;10.698;2022-10-01T02:52:41;11.60;57.10
20866;DHT22;10593;48.398;10.698;2022-10-01T02:55:18;11.60;57.00
20866;DHT22;10593;48.398;10.698;2022-10-01T02:57:46;11.60;57.00
20866;DHT22;10593;48.398;10.698;2022-10-01T03:00:15;11.60;57.00
20866;DHT22;10593;48.398;10.698;2022-10-01T03:02:51;11.50;56.80
20866;DHT22;10593;48.398;10.698;2022-10-01T03:05:17;11.50;56.80
20866;DHT22;10593;48.398;10.698;2022-10-01T03:07:45;11.50;56.70
20866;DHT22;10593;48.398;10.698;2022-10-01T03:10:12;11.50;56.70
20866;DHT22;10593;48.398;10.698;2022-10-01T03:12:40;11.50;56.70
20866;DHT22;10593;48.398;10.698;2022-10-01T03:15:10;11.50;56.70
20866;DHT22;10593;48.398;10.698;2022-10-01T03:17:36;11.50;56.80
20866;DHT22;10593;48.398;10.698;2022-10-01T03:20:03;11.50;56.90
20866;DHT22;10593;48.398;10.698;2022-10-01T03:22:31;11.40;57.00
20866;DHT22;10593;48.398;10.698;2022-10-01T03:24:58;11.50;57.10
20866;DHT22;10593;48.398;10.698;2022-10-01T03:27:23;11.40;57.10
20866;DHT22;10593;48.398;10.698;2022-10-01T03:29:49;11.40;57.20
20866;DHT22;10593;48.398;10.698;2022-10-01T03:32:16;11.40;57.80
20866;DHT22;10593;48.398;10.698;2022-10-01T03:34:42;11.40;57.30
20866;DHT22;10593;48.398;10.698;2022-10-01T03:37:08;11.50;57.50
20866;DHT22;10593;48.398;10.698;2022-10-01T03:39:34;11.40;57.50
20866;DHT22;10593;48.398;10.698;2022-10-01T03:42:00;11.40;57.50
20866;DHT22;10593;48.398;10.698;2022-10-01T03:44:26;11.40;57.50
20866;DHT22;10593;48.398;10.698;2022-10-01T03:46:54;11.40;57.40
20866;DHT22;10593;48.398;10.698;2022-10-01T03:49:20;11.40;57.30
20866;DHT22;10593;48.398;10.698;2022-10-01T03:51:46;11.40;57.20
20866;DHT22;10593;48.398;10.698;2022-10-01T03:54:11;11.40;57.20
20866;DHT22;10593;48.398;10.698;2022-10-01T03:56:38;11.40;57.30
20866;DHT22;10593;48.398;10.698;2022-10-01T03:59:10;11.40;57.30
20866;DHT22;10593;48.398;10.698;2022-10-01T04:01:36;11.40;57.30
20866;DHT22;10593;48.398;10.698;2022-10-01T04:04:03;11.40;57.30
20866;DHT22;10593;48.398;10.698;2022-10-01T04:06:29;11.40;57.30
20866;DHT22;10593;48.398;10.698;2022-10-01T04:08:55;11.40;57.40
20866;DHT22;10593;48.398;10.698;2022-10-01T04:11:21;11.40;57.50
20866;DHT22;10593;48.398;10.698;2022-10-01T04:13:46;11.40;57.40
20866;DHT22;10593;48.398;10.698;2022-10-01T04:16:12;11.30;57.50
20866;DHT22;10593;48.398;10.698;2022-10-01T04:18:39;11.30;57.50
20866;DHT22;10593;48.398;10.698;2022-10-01T04:21:05;11.30;57.30
20866;DHT22;10593;48.398;10.698;2022-10-01T04:23:31;11.30;57.10
20866;DHT22;10593;48.398;10.698;2022-10-01T04:26:00;11.30;57.00
20866;DHT22;10593;48.398;10.698;2022-10-01T04:28:28;11.30;56.90
20866;DHT22;10593;48.398;10.698;2022-10-01T04:30:55;11.30;56.80
20866;DHT22;10593;48.398;10.698;2022-10-01T04:33:40;11.30;56.70
20866;DHT22;10593;48.398;10.698;2022-10-01T04:36:06;11.20;56.60
20866;DHT22;10593;48.398;10.698;2022-10-01T04:38:32;11.20;56.70
20866;DHT22;10593;48.398;10.698;2022-10-01T04:40:57;11.20;56.80
20866;DHT22;10593;48.398;10.698;2022-10-01T04:43:23;11.20;56.90
20866;DHT22;10593;48.398;10.698;2022-10-01T04:45:49;11.20;57.20
20866;DHT22;10593;48.398;10.698;2022-10-01T04:48:14;11.20;57.50
20866;DHT22;10593;48.398;10.698;2022-10-01T04:50:40;11.20;57.70
20866;DHT22;10593;48.398;10.698;2022-10-01T04:53:06;11.20;57.70
20866;DHT22;10593;48.398;10.698;2022-10-01T04:55:31;11.20;57.90
20866;DHT22;10593;48.398;10.698;2022-10-01T04:57:57;11.20;58.00
20866;DHT22;10593;48.398;10.698;2022-10-01T05:00:23;11.20;58.10
20866;DHT22;10593;48.398;10.698;2022-10-01T05:02:51;11.20;58.20
20866;DHT22;10593;48.398;10.698;2022-10-01T05:05:19;11.20;58.30
20866;DHT22;10593;48.398;10.698;2022-10-01T05:07:47;11.20;58.50
20866;DHT22;10593;48.398;10.698;2022-10-01T05:10:15;11.20;58.60
20866;DHT22;10593;48.398;10.698;2022-10-01T05:12:43;11.30;58.60
20866;DHT22;10593;48.398;10.698;2022-10-01T05:15:09;11.20;58.50
20866;DHT22;10593;48.398;10.698;2022-10-01T05:17:35;11.20;58.60
20866;DHT22;10593;48.398;10.698;2022-10-01T05:20:02;11.30;58.70
20866;DHT22;10593;48.398;10.698;2022-10-01T05:22:29;11.30;58.80
20866;DHT22;10593;48.398;10.698;2022-10-01T05:24:56;11.20;58.80
20866;DHT22;10593;48.398;10.698;2022-10-01T05:27:25;11.30;58.90
20866;DHT22;10593;48.398;10.698;2022-10-01T05:29:51;11.20;58.80
20866;DHT22;10593;48.398;10.698;2022-10-01T05:32:17;11.30;58.90
20866;DHT22;10593;48.398;10.698;2022-10-01T05:34:45;11.30;58.90
20866;DHT22;10593;48.398;10.698;2022-10-01T05:37:10;11.30;58.90
20866;DHT22;10593;48.398;10.698;2022-10-01T05:39:36;11.30;58.90
20866;DHT22;10593;48.398;10.698;2022-10-01T05:42:02;11.30;58.90
20866;DHT22;10593;48.398;10.698;2022-10-01T05:44:28;11.30;58.90
20866;DHT22;10593;48.398;10.698;2022-10-01T05:46:58;11.30;58.90
20866;DHT22;10593;48.398;10.698;2022-10-01T05:49:24;11.30;58.90
20866;DHT22;10593;48.398;10.698;2022-10-01T05:51:50;11.30;58.90
20866;DHT22;10593;48.398;10.698;2022-10-01T05:54:16;11.30;58.90
20866;DHT22;10593;48.398;10.698;2022-10-01T05:56:44;11.30;59.00
20866;DHT22;10593;48.398;10.698;2022-10-01T05:59:10;11.30;59.00
20866;DHT22;10593;48.398;10.698;2022-10-01T06:01:36;11.30;58.90
20866;DHT22;10593;48.398;10.698;2022-10-01T06:04:02;11.30;58.90
20866;DHT22;10593;48.398;10.698;2022-10-01T06:06:28;11.30;59.00
20866;DHT22;10593;48.398;10.698;2022-10-01T06:08:54;11.30;59.00
20866;DHT22;10593;48.398;10.698;2022-10-01T06:11:20;11.30;59.20
20866;DHT22;10593;48.398;10.698;2022-10-01T06:13:49;11.30;59.30
20866;DHT22;10593;48.398;10.698;2022-10-01T06:16:15;11.30;59.40
20866;DHT22;10593;48.398;10.698;2022-10-01T06:18:41;11.30;59.50
20866;DHT22;10593;48.398;10.698;2022-10-01T06:21:08;11.30;60.40
20866;DHT22;10593;48.398;10.698;2022-10-01T06:23:34;11.30;59.80
20866;DHT22;10593;48.398;10.698;2022-10-01T06:26:02;11.40;60.10
20866;DHT22;10593;48.398;10.698;2022-10-01T06:28:33;11.40;60.60
20866;DHT22;10593;48.398;10.698;2022-10-01T06:31:02;11.40;60.70
20866;DHT22;10593;48.398;10.698;2022-10-01T06:33:29;11.40;61.00
20866;DHT22;10593;48.398;10.698;2022-10-01T06:35:54;11.40;60.90
20866;DHT22;10593;48.398;10.698;2022-10-01T06:38:21;11.40;60.90
20866;DHT22;10593;48.398;10.698;2022-10-01T06:40:59;11.50;61.50
20866;DHT22;10593;48.398;10.698;2022-10-01T06:43:28;11.50;61.70
20866;DHT22;10593;48.398;10.698;2022-10-01T06:45:55;11.50;61.80
20866;DHT22;10593;48.398;10.698;2022-10-01T06:48:24;11.50;62.10
20866;DHT22;10593;48.398;10.698;2022-10-01T06:50:50;11.60;62.40
20866;DHT22;10593;48.398;10.698;2022-10-01T06:53:18;11.60;62.70
20866;DHT22;10593;48.398;10.698;2022-10-01T06:55:44;11.60;62.80
20866;DHT22;10593;48.398;10.698;2022-10-01T06:58:14;11.60;62.90
20866;DHT22;10593;48.398;10.698;2022-10-01T07:00:42;11.70;63.10
20866;DHT22;10593;48.398;10.698;2022-10-01T07:03:12;11.70;63.10
20866;DHT22;10593;48.398;10.698;2022-10-01T07:05:40;11.70;63.20
20866;DHT22;10593;48.398;10.698;2022-10-01T07:08:06;11.70;63.50
20866;DHT22;10593;48.398;10.698;2022-10-01T07:10:32;11.70;63.70
20866;DHT22;10593;48.398;10.698;2022-10-01T07:13:16;11.80;63.90
20866;DHT22;10593;48.398;10.698;2022-10-01T07:15:44;11.80;64.00
20866;DHT22;10593;48.398;10.698;2022-10-01T07:18:11;11.80;63.70
20866;DHT22;10593;48.398;10.698;2022-10-01T07:20:38;11.90;64.00
20866;DHT22;10593;48.398;10.698;2022-10-01T07:23:09;11.90;64.10
20866;DHT22;10593;48.398;10.698;2022-10-01T07:25:37;11.90;64.20
20866;DHT22;10593;48.398;10.698;2022-10-01T07:28:05;11.90;64.30
20866;DHT22;10593;48.398;10.698;2022-10-01T07:30:32;11.90;64.30
20866;DHT22;10593;48.398;10.698;2022-10-01T07:32:58;11.90;64.40
20866;DHT22;10593;48.398;10.698;2022-10-01T07:35:24;12.00;64.60
20866;DHT22;10593;48.398;10.698;2022-10-01T07:37:50;12.00;64.70
20866;DHT22;10593;48.398;10.698;2022-10-01T07:40:17;12.00;64.70
20866;DHT22;10593;48.398;10.698;2022-10-01T07:42:54;12.00;65.00
20866;DHT22;10593;48.398;10.698;2022-10-01T07:45:24;12.00;65.30
20866;DHT22;10593;48.398;10.698;2022-10-01T07:47:54;12.10;65.20
20866;DHT22;10593;48.398;10.698;2022-10-01T07:50:22;12.10;65.00
20866;DHT22;10593;48.398;10.698;2022-10-01T07:52:53;12.10;64.90
20866;DHT22;10593;48.398;10.698;2022-10-01T07:55:21;12.20;65.00
20866;DHT22;10593;48.398;10.698;2022-10-01T07:57:50;12.20;64.90
20866;DHT22;10593;48.398;10.698;2022-10-01T08:00:16;12.20;64.80
20866;DHT22;10593;48.398;10.698;2022-10-01T08:02:51;12.20;64.80
20866;DHT22;10593;48.398;10.698;2022-10-01T08:05:22;12.20;64.80
20866;DHT22;10593;48.398;10.698;2022-10-01T08:07:49;12.30;64.90
20866;DHT22;10593;48.398;10.698;2022-10-01T08:10:17;12.30;64.90
20866;DHT22;10593;48.398;10.698;2022-10-01T08:12:45;12.30;65.00
20866;DHT22;10593;48.398;10.698;2022-10-01T08:15:12;12.30;64.80
20866;DHT22;10593;48.398;10.698;2022-10-01T08:17:41;12.40;64.90
20866;DHT22;10593;48.398;10.698;2022-10-01T08:20:08;12.40;64.80
20866;DHT22;10593;48.398;10.698;2022-10-01T08:22:36;12.40;64.70
20866;DHT22;10593;48.398;10.698;2022-10-01T08:25:02;12.40;64.60
20866;DHT22;10593;48.398;10.698;2022-10-01T08:27:29;12.50;64.70
20866;DHT22;10593;48.398;10.698;2022-10-01T08:29:55;12.50;64.80
20866;DHT22;10593;48.398;10.698;2022-10-01T08:32:21;12.50;64.60
20866;DHT22;10593;48.398;10.698;2022-10-01T08:34:49;12.50;64.80
20866;DHT22;10593;48.398;10.698;2022-10-01T08:37:17;12.50;65.00
20866;DHT22;10593;48.398;10.698;2022-10-01T08:39:42;12.50;65.00
20866;DHT22;10593;48.398;10.698;2022-10-01T08:42:38;12.60;65.00
20866;DHT22;10593;48.398;10.698;2022-10-01T08:45:18;12.60;65.40
20866;DHT22;10593;48.398;10.698;2022-10-01T08:48:06;12.60;66.00
20866;DHT22;10593;48.398;10.698;2022-10-01T08:50:48;12.60;65.30
20866;DHT22;10593;48.398;10.698;2022-10-01T08:53:33;12.60;65.30
20866;DHT22;10593;48.398;10.698;2022-10-01T08:56:03;12.70;65.50
20866;DHT22;10593;48.398;10.698;2022-10-01T08:58:44;12.70;65.50
20866;DHT22;10593;48.398;10.698;2022-10-01T09:01:14;12.70;65.60
20866;DHT22;10593;48.398;10.698;2022-10-01T09:03:40;12.70;65.70
20866;DHT22;10593;48.398;10.698;2022-10-01T09:06:19;12.70;65.90
20866;DHT22;10593;48.398;10.698;2022-10-01T09:08:56;12.70;66.10
20866;DHT22;10593;48.398;10.698;2022-10-01T09:12:04;12.80;66.00
20866;DHT22;10593;48.398;10.698;2022-10-01T09:15:25;12.80;66.00
20866;DHT22;10593;48.398;10.698;2022-10-01T09:18:10;12.80;65.90
20866;DHT22;10593;48.398;10.698;2022-10-01T09:20:56;12.80;65.50
20866;DHT22;10593;48.398;10.698;2022-10-01T09:23:31;12.80;65.60
20866;DHT22;10593;48.398;10.698;2022-10-01T09:26:10;12.80;65.50
20866;DHT22;10593;48.398;10.698;2022-10-01T09:28:38;12.80;65.50
20866;DHT22;10593;48.398;10.698;2022-10-01T09:33:43;12.80;65.40
20866;DHT22;10593;48.398;10.698;2022-10-01T09:36:30;12.90;65.60
20866;DHT22;10593;48.398;10.698;2022-10-01T09:41:44;12.90;65.50
20866;DHT22;10593;48.398;10.698;2022-10-01T09:44:31;12.90;65.40
20866;DHT22;10593;48.398;10.698;2022-10-01T09:46:58;12.90;65.30
20866;DHT22;10593;48.398;10.698;2022-10-01T09:49:31;12.90;65.10
20866;DHT22;10593;48.398;10.698;2022-10-01T09:52:06;12.90;65.10
20866;DHT22;10593;48.398;10.698;2022-10-01T09:54:46;12.90;64.90
20866;DHT22;10593;48.398;10.698;2022-10-01T10:00:13;12.90;64.90
20866;DHT22;10593;48.398;10.698;2022-10-01T10:02:47;12.90;64.90
20866;DHT22;10593;48.398;10.698;2022-10-01T10:05:19;12.90;64.90
20866;DHT22;10593;48.398;10.698;2022-10-01T10:08:03;12.90;64.90
20866;DHT22;10593;48.398;10.698;2022-10-01T10:10:37;12.90;64.80
20866;DHT22;10593;48.398;10.698;2022-10-01T10:16:06;12.90;65.20
20866;DHT22;10593;48.398;10.698;2022-10-01T10:18:45;12.90;65.10
20866;DHT22;10593;48.398;10.698;2022-10-01T10:21:20;12.90;65.10
20866;DHT22;10593;48.398;10.698;2022-10-01T10:23:58;12.90;65.10
20866;DHT22;10593;48.398;10.698;2022-10-01T10:26:34;12.90;65.20
20866;DHT22;10593;48.398;10.698;2022-10-01T10:29:04;12.90;65.20
20866;DHT22;10593;48.398;10.698;2022-10-01T10:31:42;12.90;65.10
20866;DHT22;10593;48.398;10.698;2022-10-01T10:34:17;12.90;65.50
20866;DHT22;10593;48.398;10.698;2022-10-01T10:36:47;12.90;65.60
20866;DHT22;10593;48.398;10.698;2022-10-01T10:39:22;13.00;65.60
20866;DHT22;10593;48.398;10.698;2022-10-01T10:41:51;12.90;65.60
20866;DHT22;10593;48.398;10.698;2022-10-01T10:44:19;13.00;65.60
20866;DHT22;10593;48.398;10.698;2022-10-01T10:46:51;13.00;65.60
20866;DHT22;10593;48.398;10.698;2022-10-01T10:49:26;12.90;65.40
20866;DHT22;10593;48.398;10.698;2022-10-01T10:51:57;13.00;65.60
20866;DHT22;10593;48.398;10.698;2022-10-01T10:54:39;12.90;65.40
20866;DHT22;10593;48.398;10.698;2022-10-01T10:57:22;12.90;65.50
20866;DHT22;10593;48.398;10.698;2022-10-01T10:59:57;13.00;65.50
20866;DHT22;10593;48.398;10.698;2022-10-01T11:02:39;13.00;65.50
20866;DHT22;10593;48.398;10.698;2022-10-01T11:05:19;13.00;65.50
20866;DHT22;10593;48.398;10.698;2022-10-01T11:07:52;13.00;65.40
20866;DHT22;10593;48.398;10.698;2022-10-01T11:13:55;13.00;65.40
20866;DHT22;10593;48.398;10.698;2022-10-01T11:16:33;13.00;65.50
20866;DHT22;10593;48.398;10.698;2022-10-01T11:22:29;13.00;65.30
20866;DHT22;10593;48.398;10.698;2022-10-01T11:25:18;13.00;65.40
20866;DHT22;10593;48.398;10.698;2022-10-01T11:28:03;13.00;65.40
20866;DHT22;10593;48.398;10.698;2022-10-01T11:34:11;13.00;65.50
20866;DHT22;10593;48.398;10.698;2022-10-01T11:39:33;13.00;65.50
20866;DHT22;10593;48.398;10.698;2022-10-01T11:42:06;13.00;65.40
20866;DHT22;10593;48.398;10.698;2022-10-01T11:44:55;13.00;65.60
20866;DHT22;10593;48.398;10.698;2022-10-01T11:47:57;13.00;65.70
20866;DHT22;10593;48.398;10.698;2022-10-01T11:50:33;13.00;65.80
20866;DHT22;10593;48.398;10.698;2022-10-01T11:55:54;13.00;65.70
20866;DHT22;10593;48.398;10.698;2022-10-01T11:58:49;13.00;65.80
20866;DHT22;10593;48.398;10.698;2022-10-01T12:01:29;13.00;65.70
20866;DHT22;10593;48.398;10.698;2022-10-01T12:04:01;13.00;65.80
20866;DHT22;10593;48.398;10.698;2022-10-01T12:12:01;13.10;66.30
20866;DHT22;10593;48.398;10.698;2022-10-01T12:17:44;13.10;66.60
20866;DHT22;10593;48.398;10.698;2022-10-01T12:20:33;13.10;66.40
20866;DHT22;10593;48.398;10.698;2022-10-01T12:23:06;13.10;66.50
20866;DHT22;10593;48.398;10.698;2022-10-01T12:29:11;13.10;66.70
20866;DHT22;10593;48.398;10.698;2022-10-01T12:37:52;13.20;66.70
20866;DHT22;10593;48.398;10.698;2022-10-01T13:00:22;13.20;67.00
20866;DHT22;10593;48.398;10.698;2022-10-01T13:09:21;13.30;66.90
20866;DHT22;10593;48.398;10.698;2022-10-01T13:12:08;13.30;66.80
20866;DHT22;10593;48.398;10.698;2022-10-01T13:14:45;13.30;67.10
20866;DHT22;10593;48.398;10.698;2022-10-01T13:17:27;13.30;67.00
20866;DHT22;10593;48.398;10.698;2022-10-01T13:20:27;13.30;67.20
20866;DHT22;10593;48.398;10.698;2022-10-01T13:23:12;13.30;67.20
20866;DHT22;10593;48.398;10.698;2022-10-01T13:28:57;13.30;67.20
20866;DHT22;10593;48.398;10.698;2022-10-01T13:31:54;13.40;67.30
20866;DHT22;10593;48.398;10.698;2022-10-01T13:34:40;13.40;67.30
20866;DHT22;10593;48.398;10.698;2022-10-01T13:37:15;13.40;67.30
20866;DHT22;10593;48.398;10.698;2022-10-01T13:39:45;13.40;67.20
20866;DHT22;10593;48.398;10.698;2022-10-01T13:42:25;13.40;67.10
20866;DHT22;10593;48.398;10.698;2022-10-01T13:44:59;13.40;67.20
20866;DHT22;10593;48.398;10.698;2022-10-01T13:47:29;13.40;67.10
20866;DHT22;10593;48.398;10.698;2022-10-01T13:50:03;13.50;67.10
20866;DHT22;10593;48.398;10.698;2022-10-01T13:52:33;13.50;67.10
20866;DHT22;10593;48.398;10.698;2022-10-01T13:55:00;13.50;67.00
20866;DHT22;10593;48.398;10.698;2022-10-01T14:02:39;13.50;67.00
20866;DHT22;10593;48.398;10.698;2022-10-01T14:07:43;13.60;67.10
20866;DHT22;10593;48.398;10.698;2022-10-01T14:10:13;13.50;67.00
20866;DHT22;10593;48.398;10.698;2022-10-01T14:12:43;13.60;67.00
20866;DHT22;10593;48.398;10.698;2022-10-01T14:15:38;13.60;67.00
20866;DHT22;10593;48.398;10.698;2022-10-01T14:18:31;13.60;67.20
20866;DHT22;10593;48.398;10.698;2022-10-01T14:24:25;13.60;67.20
20866;DHT22;10593;48.398;10.698;2022-10-01T14:32:57;13.70;67.40
20866;DHT22;10593;48.398;10.698;2022-10-01T14:38:25;13.70;67.20
20866;DHT22;10593;48.398;10.698;2022-10-01T14:40:52;13.70;67.10
20866;DHT22;10593;48.398;10.698;2022-10-01T14:43:23;13.80;67.40
20866;DHT22;10593;48.398;10.698;2022-10-01T14:46:04;13.80;67.30
20866;DHT22;10593;48.398;10.698;2022-10-01T14:48:36;13.80;67.30
20866;DHT22;10593;48.398;10.698;2022-10-01T14:51:05;13.80;67.10
20866;DHT22;10593;48.398;10.698;2022-10-01T14:53:44;13.80;67.10
20866;DHT22;10593;48.398;10.698;2022-10-01T14:56:13;13.90;67.00
20866;DHT22;10593;48.398;10.698;2022-10-01T14:58:47;13.90;67.00
20866;DHT22;10593;48.398;10.698;2022-10-01T15:01:19;13.80;66.80
20866;DHT22;10593;48.398;10.698;2022-10-01T15:03:47;13.90;66.80
20866;DHT22;10593;48.398;10.698;2022-10-01T15:06:16;13.90;66.70
20866;DHT22;10593;48.398;10.698;2022-10-01T15:08:49;13.90;66.70
20866;DHT22;10593;48.398;10.698;2022-10-01T15:11:17;13.90;66.60
20866;DHT22;10593;48.398;10.698;2022-10-01T15:13:50;13.90;66.60
20866;DHT22;10593;48.398;10.698;2022-10-01T15:16:20;13.90;66.50
20866;DHT22;10593;48.398;10.698;2022-10-01T15:18:50;13.90;66.40
20866;DHT22;10593;48.398;10.698;2022-10-01T15:21:23;14.00;66.40
20866;DHT22;10593;48.398;10.698;2022-10-01T15:23:54;14.00;66.30
20866;DHT22;10593;48.398;10.698;2022-10-01T15:26:25;14.00;66.20
20866;DHT22;10593;48.398;10.698;2022-10-01T15:29:11;14.00;66.10
20866;DHT22;10593;48.398;10.698;2022-10-01T15:31:38;14.00;66.20
20866;DHT22;10593;48.398;10.698;2022-10-01T15:34:08;14.00;66.10
20866;DHT22;10593;48.398;10.698;2022-10-01T15:36:37;14.00;66.00
20866;DHT22;10593;48.398;10.698;2022-10-01T15:39:24;14.00;66.00
20866;DHT22;10593;48.398;10.698;2022-10-01T15:41:54;14.00;66.10
20866;DHT22;10593;48.398;10.698;2022-10-01T16:03:22;14.00;65.90
20866;DHT22;10593;48.398;10.698;2022-10-01T16:05:51;14.00;65.80
20866;DHT22;10593;48.398;10.698;2022-10-01T16:08:24;14.00;65.80
20866;DHT22;10593;48.398;10.698;2022-10-01T16:13:45;14.00;66.00
20866;DHT22;10593;48.398;10.698;2022-10-01T16:18:40;14.00;65.90
20866;DHT22;10593;48.398;10.698;2022-10-01T16:21:08;14.00;66.00
20866;DHT22;10593;48.398;10.698;2022-10-01T16:23:43;14.00;66.20
20866;DHT22;10593;48.398;10.698;2022-10-01T16:26:42;14.00;66.20
20866;DHT22;10593;48.398;10.698;2022-10-01T16:31:41;14.10;66.30
20866;DHT22;10593;48.398;10.698;2022-10-01T16:34:14;14.00;66.20
20866;DHT22;10593;48.398;10.698;2022-10-01T16:36:42;14.10;66.40
20866;DHT22;10593;48.398;10.698;2022-10-01T16:39:09;14.10;66.40
20866;DHT22;10593;48.398;10.698;2022-10-01T16:41:38;14.10;66.50
20866;DHT22;10593;48.398;10.698;2022-10-01T16:44:04;14.10;66.50
20866;DHT22;10593;48.398;10.698;2022-10-01T16:46:31;14.10;66.60
20866;DHT22;10593;48.398;10.698;2022-10-01T16:48:57;14.10;66.50
20866;DHT22;10593;48.398;10.698;2022-10-01T16:51:23;14.10;66.60
20866;DHT22;10593;48.398;10.698;2022-10-01T16:53:50;14.10;66.60
20866;DHT22;10593;48.398;10.698;2022-10-01T16:56:15;14.10;66.70
20866;DHT22;10593;48.398;10.698;2022-10-01T16:58:41;14.10;66.70
20866;DHT22;10593;48.398;10.698;2022-10-01T17:01:10;14.10;66.60
20866;DHT22;10593;48.398;10.698;2022-10-01T17:03:38;14.10;66.70
20866;DHT22;10593;48.398;10.698;2022-10-01T17:06:04;14.10;66.70
20866;DHT22;10593;48.398;10.698;2022-10-01T17:08:30;14.10;66.70
20866;DHT22;10593;48.398;10.698;2022-10-01T17:10:58;14.20;66.80
20866;DHT22;10593;48.398;10.698;2022-10-01T17:13:31;14.10;66.80
20866;DHT22;10593;48.398;10.698;2022-10-01T17:15:59;14.10;66.80
20866;DHT22;10593;48.398;10.698;2022-10-01T17:18:25;14.20;66.80
20866;DHT22;10593;48.398;10.698;2022-10-01T17:20:51;14.20;66.90
20866;DHT22;10593;48.398;10.698;2022-10-01T17:23:18;14.20;66.80
20866;DHT22;10593;48.398;10.698;2022-10-01T17:25:46;14.20;66.80
20866;DHT22;10593;48.398;10.698;2022-10-01T17:28:14;14.20;66.90
20866;DHT22;10593;48.398;10.698;2022-10-01T17:30:42;14.20;66.90
20866;DHT22;10593;48.398;10.698;2022-10-01T17:33:12;14.20;66.90
20866;DHT22;10593;48.398;10.698;2022-10-01T17:35:43;14.20;66.90
20866;DHT22;10593;48.398;10.698;2022-10-01T17:38:11;14.20;67.00
20866;DHT22;10593;48.398;10.698;2022-10-01T17:40:41;14.20;66.90
20866;DHT22;10593;48.398;10.698;2022-10-01T17:43:10;14.20;67.00
20866;DHT22;10593;48.398;10.698;2022-10-01T17:45:36;14.20;67.00
20866;DHT22;10593;48.398;10.698;2022-10-01T17:48:02;14.20;67.00
20866;DHT22;10593;48.398;10.698;2022-10-01T17:50:28;14.20;67.00
20866;DHT22;10593;48.398;10.698;2022-10-01T17:52:54;14.20;67.00
20866;DHT22;10593;48.398;10.698;2022-10-01T17:55:19;14.20;67.00
20866;DHT22;10593;48.398;10.698;2022-10-01T17:57:48;14.20;67.00
20866;DHT22;10593;48.398;10.698;2022-10-01T18:00:14;14.20;67.00
20866;DHT22;10593;48.398;10.698;2022-10-01T18:02:39;14.20;67.00
20866;DHT22;10593;48.398;10.698;2022-10-01T18:05:06;14.20;67.00
20866;DHT22;10593;48.398;10.698;2022-10-01T18:07:34;14.20;66.90
20866;DHT22;10593;48.398;10.698;2022-10-01T18:10:04;14.20;66.90
20866;DHT22;10593;48.398;10.698;2022-10-01T18:12:31;14.20;66.90
20866;DHT22;10593;48.398;10.698;2022-10-01T18:14:58;14.30;67.00